Time;durP1;ratioP1;P1;durP2;ratioP2;P2;SDS_P1;SDS_P2;PMS_P1;PMS_P2;Temp;Humidity;BMP_temperature;BMP_pressure;BME280_temperature;BME280_humidity;BME280_pressure;Samples;Min_cycle;Max_cycle;Signal;HPM_P1;HPM_P2
2022/10/29 00:00:14;;;;;;;;;;;;;;;22.67;56.91;98141.29;600700;236;67209;-73
2022/10/29 00:02:42;;;;;;;;;;;;;;;22.65;57.24;98136.20;600747;236;62800;-74
2022/10/29 00:05:09;;;;;;;;;;;;;;;22.65;55.36;98141.56;600725;236;64885;-73
2022/10/29 00:07:37;;;;;;;;;;;;;;;22.66;57.42;98137.81;600742;236;65098;-73
2022/10/29 00:10:05;;;;;;;;;;;;;;;22.65;56.35;98144.24;600710;236;63654;-73
2022/10/29 00:12:32;;;;;;;;;;;;;;;22.65;56.61;98138.08;600735;236;67103;-74
2022/10/29 00:15:00;;;;;;;;;;;;;;;22.65;57.44;98138.88;600740;236;64776;-72
2022/10/29 00:17:27;;;;;;;;;;;;;;;22.65;56.56;98140.77;600733;236;62788;-72
2022/10/29 00:19:54;;;;;;;;;;;;;;;22.65;56.65;98140.77;600734;236;64523;-72
2022/10/29 00:22:22;;;;;;;;;;;;;;;22.64;56.92;98136.45;600755;236;65622;-72
2022/10/29 00:24:49;;;;;;;;;;;;;;;22.63;56.38;98132.97;600714;236;64863;-72
2022/10/29 00:27:17;;;;;;;;;;;;;;;22.64;56.65;98129.21;600713;236;67268;-72
2022/10/29 00:29:45;;;;;;;;;;;;;;;22.64;57.10;98129.21;600730;236;64382;-72
2022/10/29 00:32:12;;;;;;;;;;;;;;;22.62;56.73;98128.68;600731;236;62754;-72
2022/10/29 00:34:40;;;;;;;;;;;;;;;22.63;57.34;98135.64;600747;236;64766;-72
2022/10/29 00:37:07;;;;;;;;;;;;;;;22.63;56.97;98132.97;600727;236;64821;-72
2022/10/29 00:39:35;;;;;;;;;;;;;;;22.62;57.12;98126.00;600741;236;64918;-72
2022/10/29 00:42:03;;;;;;;;;;;;;;;22.61;56.43;98125.17;600770;236;66754;-72
2022/10/29 00:44:34;;;;;;;;;;;;;;;22.61;57.01;98119.00;600747;236;66639;-72
2022/10/29 00:47:06;;;;;;;;;;;;;;;22.61;56.67;98119.00;600747;236;65086;-73
2022/10/29 00:49:34;;;;;;;;;;;;;;;22.61;57.01;98119.81;601443;234;64522;-73
2022/10/29 00:52:03;;;;;;;;;;;;;;;22.62;57.56;98115.28;604866;234;66820;-73
2022/10/29 00:54:31;;;;;;;;;;;;;;;22.61;57.15;98119.00;604840;234;64853;-73
2022/10/29 00:57:00;;;;;;;;;;;;;;;22.61;57.17;98119.00;604838;234;66789;-72
2022/10/29 00:59:28;;;;;;;;;;;;;;;22.61;57.33;98114.45;604793;234;66642;-72
2022/10/29 01:01:55;;;;;;;;;;;;;;;22.60;57.13;98115.52;604847;234;64989;-72
2022/10/29 01:04:24;;;;;;;;;;;;;;;22.59;57.03;98105.88;604812;234;66717;-72
2022/10/29 01:06:52;;;;;;;;;;;;;;;22.59;57.56;98111.23;604817;234;66779;-72
2022/10/29 01:09:19;;;;;;;;;;;;;;;22.59;58.12;98103.20;604814;234;62733;-72
2022/10/29 01:11:55;;;;;;;;;;;;;;;22.59;57.43;98107.76;604841;234;66981;-72
2022/10/29 01:14:27;;;;;;;;;;;;;;;22.59;57.75;98105.08;604819;234;67158;-72
2022/10/29 01:17:05;;;;;;;;;;;;;;;22.58;58.18;98104.25;604835;234;65176;-72
2022/10/29 01:19:40;;;;;;;;;;;;;;;22.57;58.95;98107.20;604799;234;67131;-72
2022/10/29 01:22:15;;;;;;;;;;;;;;;22.56;57.15;98103.72;604845;234;66831;-72
2022/10/29 01:24:48;;;;;;;;;;;;;;;22.56;56.90;98095.67;604841;234;64847;-72
2022/10/29 01:27:26;;;;;;;;;;;;;;;22.56;57.87;98094.84;593215;234;67172;-72
2022/10/29 01:30:07;;;;;;;;;;;;;;;22.56;58.03;98094.84;604840;234;64839;-72
2022/10/29 01:32:36;;;;;;;;;;;;;;;22.55;57.05;98093.24;604831;234;65143;-72
2022/10/29 01:35:05;;;;;;;;;;;;;;;22.54;57.83;98091.64;604872;234;65458;-72
2022/10/29 01:37:37;;;;;;;;;;;;;;;22.55;57.72;98086.00;592326;234;66846;-72
2022/10/29 01:40:06;;;;;;;;;;;;;;;22.54;57.27;98087.08;604672;234;62836;-72
2022/10/29 01:42:38;;;;;;;;;;;;;;;22.54;57.68;98078.23;604822;234;65975;-72
2022/10/29 01:45:23;;;;;;;;;;;;;;;22.55;57.09;98074.48;604863;234;66836;-72
2022/10/29 01:47:52;;;;;;;;;;;;;;;22.54;57.79;98078.23;604843;234;62636;-72
2022/10/29 01:50:21;;;;;;;;;;;;;;;22.53;57.43;98080.09;604761;234;64802;-72
2022/10/29 01:52:49;;;;;;;;;;;;;;;22.53;57.44;98082.77;604822;234;66745;-72
2022/10/29 01:55:21;;;;;;;;;;;;;;;22.53;57.96;98077.41;604862;234;62706;-72
2022/10/29 01:57:49;;;;;;;;;;;;;;;22.52;58.64;98075.80;604913;234;64542;-72
2022/10/29 02:00:17;;;;;;;;;;;;;;;22.53;57.00;98073.92;604852;234;64659;-72
2022/10/29 02:02:59;;;;;;;;;;;;;;;22.52;57.18;98072.33;604868;234;64875;-72
2022/10/29 02:05:36;;;;;;;;;;;;;;;22.52;57.65;98062.41;604809;234;66760;-72
2022/10/29 02:08:08;;;;;;;;;;;;;;;22.52;58.40;98066.97;604618;234;66605;-72
2022/10/29 02:10:38;;;;;;;;;;;;;;;22.51;57.12;98062.69;604861;234;62915;-72
2022/10/29 02:13:06;;;;;;;;;;;;;;;22.51;57.98;98060.81;604653;234;64339;-72
2022/10/29 02:15:35;;;;;;;;;;;;;;;22.51;56.78;98060.81;604856;234;66676;-72
2022/10/29 02:18:04;;;;;;;;;;;;;;;22.51;57.65;98060.00;604869;234;62666;-72
2022/10/29 02:20:31;;;;;;;;;;;;;;;22.50;57.15;98058.37;604863;234;66775;-74
2022/10/29 02:22:59;;;;;;;;;;;;;;;22.50;58.80;98050.33;604892;234;64272;-74
2022/10/29 02:25:27;;;;;;;;;;;;;;;22.51;57.98;98051.97;604870;234;64894;-74
2022/10/29 02:27:56;;;;;;;;;;;;;;;22.51;57.50;98054.65;604830;234;44585;-72
2022/10/29 02:30:24;;;;;;;;;;;;;;;22.49;57.80;98052.20;604796;234;67068;-72
2022/10/29 02:32:51;;;;;;;;;;;;;;;22.49;57.67;98049.53;604813;234;64889;-72
2022/10/29 02:35:19;;;;;;;;;;;;;;;22.49;57.81;98046.05;604816;234;66825;-72
2022/10/29 02:37:46;;;;;;;;;;;;;;;22.50;57.97;98053.02;604822;234;66623;-72
2022/10/29 02:40:14;;;;;;;;;;;;;;;22.48;57.47;98050.61;604809;234;64840;-72
2022/10/29 02:42:42;;;;;;;;;;;;;;;22.48;57.83;98053.28;604854;234;66764;-72
2022/10/29 02:45:09;;;;;;;;;;;;;;;22.49;58.36;98051.41;604836;234;66671;-72
2022/10/29 02:47:37;;;;;;;;;;;;;;;22.49;57.35;98051.41;604816;234;64880;-72
2022/10/29 02:50:05;;;;;;;;;;;;;;;22.47;57.78;98046.30;602882;234;67541;-72
2022/10/29 02:52:32;;;;;;;;;;;;;;;22.48;58.02;98047.09;600735;236;66747;-72
2022/10/29 02:55:00;;;;;;;;;;;;;;;22.48;58.60;98044.41;600737;236;64958;-72
2022/10/29 02:57:27;;;;;;;;;;;;;;;22.48;58.02;98047.09;600693;234;67067;-72
2022/10/29 02:59:55;;;;;;;;;;;;;;;22.47;57.71;98043.61;600714;236;64362;-72
2022/10/29 03:02:22;;;;;;;;;;;;;;;22.46;58.34;98039.33;600736;236;62750;-72
2022/10/29 03:04:49;;;;;;;;;;;;;;;22.47;59.34;98037.45;600707;236;64929;-72
2022/10/29 03:07:17;;;;;;;;;;;;;;;22.46;58.72;98047.37;600774;236;64613;-72
2022/10/29 03:09:44;;;;;;;;;;;;;;;22.45;60.86;98045.73;600686;236;62664;-72
2022/10/29 03:12:12;;;;;;;;;;;;;;;22.45;60.65;98039.58;600727;236;64482;-73
2022/10/29 03:14:39;;;;;;;;;;;;;;;22.45;59.93;98044.93;600714;236;66350;-74
2022/10/29 03:17:07;;;;;;;;;;;;;;;22.45;61.54;98037.70;600710;236;65453;-72
2022/10/29 03:19:34;;;;;;;;;;;;;;;22.44;59.08;98035.30;600751;236;66731;-72
2022/10/29 03:22:02;;;;;;;;;;;;;;;22.44;59.52;98032.61;600711;236;66683;-72
2022/10/29 03:24:29;;;;;;;;;;;;;;;22.44;61.21;98032.61;600667;236;64874;-72
2022/10/29 03:26:57;;;;;;;;;;;;;;;22.42;59.52;98030.17;600703;236;66840;-72
2022/10/29 03:29:24;;;;;;;;;;;;;;;22.42;61.04;98024.02;600732;236;66634;-72
2022/10/29 03:31:52;;;;;;;;;;;;;;;22.42;58.60;98032.05;600719;236;64883;-72
2022/10/29 03:34:19;;;;;;;;;;;;;;;22.43;58.93;98031.01;600729;236;66802;-72
2022/10/29 03:36:47;;;;;;;;;;;;;;;22.42;60.22;98030.17;600746;236;64289;-72
2022/10/29 03:39:14;;;;;;;;;;;;;;;22.42;59.16;98035.53;600705;236;64658;-72
2022/10/29 03:41:42;;;;;;;;;;;;;;;22.41;59.10;98028.57;600739;236;66734;-72
2022/10/29 03:44:09;;;;;;;;;;;;;;;22.41;59.90;98031.25;600681;236;66880;-72
2022/10/29 03:46:36;;;;;;;;;;;;;;;22.41;59.97;98027.77;600777;236;64860;-72
2022/10/29 03:49:04;;;;;;;;;;;;;;;22.41;59.14;98027.77;600811;234;66815;-72
2022/10/29 03:51:31;;;;;;;;;;;;;;;22.39;58.38;98023.45;604794;234;66700;-72
2022/10/29 03:53:59;;;;;;;;;;;;;;;22.39;60.79;98026.14;604797;234;64785;-72
2022/10/29 03:56:26;;;;;;;;;;;;;;;22.39;59.87;98031.49;604819;234;66777;-72
2022/10/29 03:58:54;;;;;;;;;;;;;;;22.39;59.79;98028.02;604852;234;66816;-72
2022/10/29 04:01:21;;;;;;;;;;;;;;;22.39;59.02;98028.81;604848;234;64867;-72
2022/10/29 04:03:49;;;;;;;;;;;;;;;22.38;58.86;98024.53;604816;234;64194;-72
2022/10/29 04:06:17;;;;;;;;;;;;;;;22.39;57.43;98026.14;604754;234;64386;-72
2022/10/29 04:08:44;;;;;;;;;;;;;;;22.39;59.72;98028.81;604780;234;64901;-72
2022/10/29 04:11:13;;;;;;;;;;;;;;;22.37;58.91;98033.64;604870;234;67044;-72
2022/10/29 04:13:40;;;;;;;;;;;;;;;22.38;58.81;98029.09;604789;234;65226;-72
2022/10/29 04:16:08;;;;;;;;;;;;;;;22.37;59.58;98028.28;604810;234;64751;-72
2022/10/29 04:18:35;;;;;;;;;;;;;;;22.37;60.16;98033.64;604784;234;64530;-72
2022/10/29 04:21:03;;;;;;;;;;;;;;;22.37;59.33;98033.64;604794;234;64528;-72
2022/10/29 04:23:30;;;;;;;;;;;;;;;22.37;59.58;98028.28;604854;234;64868;-72
2022/10/29 04:25:59;;;;;;;;;;;;;;;22.36;59.17;98032.00;604823;234;64623;-72
2022/10/29 04:28:26;;;;;;;;;;;;;;;22.36;59.20;98028.53;604782;234;66680;-72
2022/10/29 04:30:54;;;;;;;;;;;;;;;22.34;60.10;98026.13;604818;234;64999;-72
2022/10/29 04:33:21;;;;;;;;;;;;;;;22.35;59.78;98021.56;604768;234;66818;-72
2022/10/29 04:35:53;;;;;;;;;;;;;;;22.35;59.46;98029.59;604834;234;66637;-72
2022/10/29 04:38:21;;;;;;;;;;;;;;;22.34;61.23;98034.16;604804;234;65137;-72
2022/10/29 04:40:48;;;;;;;;;;;;;;;22.34;59.16;98033.32;604815;234;66753;-72
2022/10/29 04:43:16;;;;;;;;;;;;;;;22.34;60.31;98031.48;604799;234;66626;-72
2022/10/29 04:45:43;;;;;;;;;;;;;;;22.33;58.80;98027.16;604798;234;62704;-72
2022/10/29 04:48:11;;;;;;;;;;;;;;;22.34;59.53;98030.64;604799;234;65398;-72
2022/10/29 04:50:38;;;;;;;;;;;;;;;22.33;58.57;98031.72;602044;234;66125;-73
2022/10/29 04:53:06;;;;;;;;;;;;;;;22.32;58.84;98022.88;600739;236;65231;-73
2022/10/29 04:55:36;;;;;;;;;;;;;;;22.34;59.25;98019.93;600734;236;64377;-74
2022/10/29 04:58:07;;;;;;;;;;;;;;;22.33;60.04;98021.01;600681;236;66677;-74
2022/10/29 05:00:34;;;;;;;;;;;;;;;22.32;60.07;98024.76;600728;236;62991;-73
2022/10/29 05:03:02;;;;;;;;;;;;;;;22.31;59.96;98031.95;600784;236;65220;-74
2022/10/29 05:05:30;;;;;;;;;;;;;;;22.32;61.24;98024.76;600787;236;66199;-74
2022/10/29 05:07:58;;;;;;;;;;;;;;;22.29;60.48;98020.72;600735;236;62753;-74
2022/10/29 05:10:27;;;;;;;;;;;;;;;22.31;59.73;98029.28;600772;236;66552;-73
2022/10/29 05:13:02;;;;;;;;;;;;;;;22.30;59.38;98026.87;600651;234;66670;-74
2022/10/29 05:15:29;;;;;;;;;;;;;;;22.29;58.48;98027.92;600808;236;64864;-73
2022/10/29 05:17:57;;;;;;;;;;;;;;;22.30;60.25;98026.87;600741;234;66408;-74
2022/10/29 05:20:25;;;;;;;;;;;;;;;22.29;60.57;98027.92;600788;236;66661;-74
2022/10/29 05:23:00;;;;;;;;;;;;;;;22.29;61.55;98025.24;600749;236;62798;-73
2022/10/29 05:25:27;;;;;;;;;;;;;;;22.29;61.83;98035.95;600569;236;67078;-75
2022/10/29 05:28:06;;;;;;;;;;;;;;;22.28;59.25;98032.47;600733;236;64345;-75
2022/10/29 05:30:34;;;;;;;;;;;;;;;22.28;61.20;98028.99;600784;236;64903;-73
2022/10/29 05:33:01;;;;;;;;;;;;;;;22.28;61.20;98034.34;600725;236;64582;-73
2022/10/29 05:35:29;;;;;;;;;;;;;;;22.27;61.77;98038.09;600725;236;64718;-73
2022/10/29 05:37:59;;;;;;;;;;;;;;;22.27;61.10;98036.22;600606;236;46964;-73
2022/10/29 05:40:26;;;;;;;;;;;;;;;22.26;60.39;98034.62;600736;236;66658;-72
2022/10/29 05:42:55;;;;;;;;;;;;;;;22.26;61.28;98042.66;600785;236;66526;-71
2022/10/29 05:45:23;;;;;;;;;;;;;;;22.25;60.73;98041.02;600746;236;64976;-72
2022/10/29 05:47:57;;;;;;;;;;;;;;;22.25;61.11;98043.69;600700;236;66707;-72
2022/10/29 05:50:25;;;;;;;;;;;;;;;22.25;61.98;98041.02;603106;234;66617;-72
2022/10/29 05:52:56;;;;;;;;;;;;;;;22.25;61.76;98048.25;604854;234;65205;-71
2022/10/29 05:55:24;;;;;;;;;;;;;;;22.24;60.27;98047.45;604835;234;66780;-73
2022/10/29 05:57:53;;;;;;;;;;;;;;;22.24;61.43;98047.45;604879;234;66989;-73
2022/10/29 06:00:20;;;;;;;;;;;;;;;22.24;61.12;98052.80;604817;234;62845;-74
2022/10/29 06:02:48;;;;;;;;;;;;;;;22.23;61.06;98045.01;604768;234;66711;-72
2022/10/29 06:05:15;;;;;;;;;;;;;;;22.23;61.76;98053.84;604860;234;64091;-72
2022/10/29 06:07:43;;;;;;;;;;;;;;;22.23;62.43;98059.20;604807;234;62928;-72
2022/10/29 06:10:10;;;;;;;;;;;;;;;22.21;60.68;98053.31;604841;234;64367;-72
2022/10/29 06:12:38;;;;;;;;;;;;;;;22.22;61.75;98057.59;604781;234;64795;-72
2022/10/29 06:15:06;;;;;;;;;;;;;;;22.22;61.42;98054.92;604809;234;62830;-72
2022/10/29 06:17:33;;;;;;;;;;;;;;;22.22;61.82;98062.95;604776;234;65580;-71
2022/10/29 06:20:01;;;;;;;;;;;;;;;22.21;61.57;98061.34;604823;234;64551;-73
2022/10/29 06:22:28;;;;;;;;;;;;;;;22.20;62.00;98057.03;604864;234;63687;-72
2022/10/29 06:24:56;;;;;;;;;;;;;;;22.21;61.46;98055.16;604796;234;66780;-72
2022/10/29 06:27:24;;;;;;;;;;;;;;;22.21;62.13;98061.34;604809;234;66627;-74
2022/10/29 06:29:52;;;;;;;;;;;;;;;22.22;60.88;98056.80;604759;234;66292;-74
2022/10/29 06:32:19;;;;;;;;;;;;;;;22.20;62.13;98057.03;604824;234;64360;-73
2022/10/29 06:34:47;;;;;;;;;;;;;;;22.21;60.69;98058.67;604850;234;64509;-72
2022/10/29 06:37:14;;;;;;;;;;;;;;;22.21;61.32;98058.67;604789;234;63622;-72
2022/10/29 06:39:42;;;;;;;;;;;;;;;22.22;61.94;98057.59;604748;234;67195;-72
2022/10/29 06:42:09;;;;;;;;;;;;;;;22.21;59.84;98055.16;604816;234;66595;-72
2022/10/29 06:44:37;;;;;;;;;;;;;;;22.21;61.65;98061.34;604725;234;65169;-72
2022/10/29 06:47:04;;;;;;;;;;;;;;;22.20;61.06;98054.35;604897;234;66752;-72
2022/10/29 06:49:32;;;;;;;;;;;;;;;22.22;62.12;98054.92;603848;234;64509;-73
2022/10/29 06:51:59;;;;;;;;;;;;;;;22.22;61.57;98057.59;600730;236;63636;-73
2022/10/29 06:54:29;;;;;;;;;;;;;;;22.21;61.01;98060.52;600709;236;64633;-73
2022/10/29 06:56:56;;;;;;;;;;;;;;;22.22;60.93;98056.80;600711;236;66915;-74
2022/10/29 06:59:23;;;;;;;;;;;;;;;22.21;61.71;98049.80;600716;236;64910;-73
2022/10/29 07:01:51;;;;;;;;;;;;;;;22.20;61.21;98051.67;600744;236;66773;-74
2022/10/29 07:04:19;;;;;;;;;;;;;;;22.20;61.32;98057.03;600740;236;64398;-73
2022/10/29 07:06:47;;;;;;;;;;;;;;;22.21;61.86;98050.64;600679;236;66114;-74
2022/10/29 07:09:14;;;;;;;;;;;;;;;22.21;61.91;98050.64;600698;236;66745;-74
2022/10/29 07:11:42;;;;;;;;;;;;;;;22.20;62.00;98046.32;600678;236;66671;-74
2022/10/29 07:14:09;;;;;;;;;;;;;;;22.21;61.55;98047.13;600564;236;65209;-74
2022/10/29 07:16:37;;;;;;;;;;;;;;;22.21;63.21;98053.31;600724;236;66746;-74
2022/10/29 07:19:04;;;;;;;;;;;;;;;22.21;61.69;98050.64;600776;236;66275;-74
2022/10/29 07:21:33;;;;;;;;;;;;;;;22.20;61.46;98043.64;600687;236;65583;-74
2022/10/29 07:24:01;;;;;;;;;;;;;;;22.20;62.31;98043.64;600667;236;66773;-74
2022/10/29 07:26:28;;;;;;;;;;;;;;;22.20;61.49;98049.00;600720;236;66950;-74
2022/10/29 07:28:56;;;;;;;;;;;;;;;22.19;61.99;98047.39;600717;236;64958;-74
2022/10/29 07:31:24;;;;;;;;;;;;;;;22.21;62.55;98045.28;600679;236;64630;-74
2022/10/29 07:33:52;;;;;;;;;;;;;;;22.20;61.63;98040.16;600676;236;64311;-74
2022/10/29 07:36:19;;;;;;;;;;;;;;;22.20;61.97;98040.97;600706;236;64969;-74
2022/10/29 07:38:47;;;;;;;;;;;;;;;22.21;63.44;98044.45;600728;236;66791;-74
2022/10/29 07:41:16;;;;;;;;;;;;;;;22.19;62.96;98031.33;600651;236;44923;-73
2022/10/29 07:43:43;;;;;;;;;;;;;;;22.19;63.26;98031.33;600742;236;66082;-73
2022/10/29 07:46:11;;;;;;;;;;;;;;;22.18;62.54;98035.08;600712;236;66536;-73
2022/10/29 07:48:38;;;;;;;;;;;;;;;22.19;62.55;98042.04;600528;236;66782;-74
2022/10/29 07:51:06;;;;;;;;;;;;;;;22.19;63.21;98033.20;600630;235;64670;-74
2022/10/29 07:53:33;;;;;;;;;;;;;;;22.19;63.35;98039.36;600786;236;66994;-73
2022/10/29 07:56:01;;;;;;;;;;;;;;;22.19;64.00;98036.69;600702;236;66752;-74
2022/10/29 07:58:28;;;;;;;;;;;;;;;22.17;62.40;98034.22;600709;236;65000;-74
2022/10/29 08:00:57;;;;;;;;;;;;;;;22.17;62.49;98026.19;600725;236;66824;-73
2022/10/29 08:03:24;;;;;;;;;;;;;;;22.19;63.58;98035.88;600716;236;66628;-74
2022/10/29 08:05:52;;;;;;;;;;;;;;;22.17;63.55;98033.41;600702;236;65051;-72
2022/10/29 08:08:19;;;;;;;;;;;;;;;22.17;63.79;98030.73;600723;236;66798;-72
2022/10/29 08:10:47;;;;;;;;;;;;;;;22.18;62.90;98029.73;600679;236;66911;-72
2022/10/29 08:13:18;;;;;;;;;;;;;;;22.17;62.94;98028.86;600758;236;62556;-72
2022/10/29 08:15:45;;;;;;;;;;;;;;;22.17;62.72;98025.38;600599;236;66895;-73
2022/10/29 08:18:15;;;;;;;;;;;;;;;22.16;63.19;98024.58;600718;236;48460;-73
2022/10/29 08:20:43;;;;;;;;;;;;;;;22.16;63.63;98024.58;600695;233;62730;-73
2022/10/29 08:23:11;;;;;;;;;;;;;;;22.16;62.08;98023.78;600690;236;64379;-73
2022/10/29 08:25:41;;;;;;;;;;;;;;;22.16;63.38;98021.91;600714;236;64738;-73
2022/10/29 08:28:13;;;;;;;;;;;;;;;22.16;63.46;98021.10;600652;236;62652;-73
2022/10/29 08:30:42;;;;;;;;;;;;;;;22.15;63.59;98019.47;600700;236;64566;-73
2022/10/29 08:33:11;;;;;;;;;;;;;;;22.15;63.93;98020.30;600722;236;66442;-73
2022/10/29 08:35:39;;;;;;;;;;;;;;;22.14;62.78;98013.31;600693;236;64744;-72
2022/10/29 08:38:06;;;;;;;;;;;;;;;22.15;63.65;98014.11;600762;236;66723;-72
2022/10/29 08:40:36;;;;;;;;;;;;;;;22.14;63.49;98017.86;600792;236;66722;-72
2022/10/29 08:43:23;;;;;;;;;;;;;;;22.14;64.20;98012.51;600799;236;64904;-73
2022/10/29 08:45:52;;;;;;;;;;;;;;;22.14;64.29;98018.66;600817;236;66883;-73
2022/10/29 08:48:36;;;;;;;;;;;;;;;22.14;65.66;98007.95;600641;236;66780;-73
2022/10/29 08:51:12;;;;;;;;;;;;;;;22.14;63.74;98007.95;604225;234;64823;-72
2022/10/29 08:53:41;;;;;;;;;;;;;;;22.12;63.66;97999.36;604834;234;66687;-73
2022/10/29 08:56:16;;;;;;;;;;;;;;;22.13;64.20;97998.32;604793;234;67253;-73
2022/10/29 08:58:51;;;;;;;;;;;;;;;22.12;64.22;97996.69;604802;234;62790;-73
2022/10/29 09:01:25;;;;;;;;;;;;;;;22.12;64.23;97995.88;604840;234;66229;-73
2022/10/29 09:03:50;;;;;;;;;;;;;;;22.13;64.90;97989.48;604626;234;66327;-72
2022/10/29 09:06:19;;;;;;;;;;;;;;;22.12;65.30;97988.66;604842;234;64896;-72
2022/10/29 09:09:03;;;;;;;;;;;;;;;22.11;63.22;97983.58;604759;234;66729;-72
2022/10/29 09:11:49;;;;;;;;;;;;;;;22.12;63.51;97985.17;604707;234;66177;-73
2022/10/29 09:14:21;;;;;;;;;;;;;;;22.12;64.78;97977.14;604885;234;63643;-74
2022/10/29 09:16:50;;;;;;;;;;;;;;;22.10;64.37;97979.30;604905;234;64264;-73
2022/10/29 09:19:22;;;;;;;;;;;;;;;22.10;64.54;97973.94;604940;234;64238;-73
2022/10/29 09:21:51;;;;;;;;;;;;;;;22.10;64.07;97974.74;593198;234;64994;-73
2022/10/29 09:24:21;;;;;;;;;;;;;;;22.09;63.61;97970.43;604744;234;64485;-73
2022/10/29 09:27:01;;;;;;;;;;;;;;;22.11;63.17;97970.19;604844;234;64389;-73
2022/10/29 09:29:44;;;;;;;;;;;;;;;22.10;62.80;97969.39;604850;234;62862;-73
2022/10/29 09:32:30;;;;;;;;;;;;;;;22.09;63.98;97962.40;604834;234;64715;-72
2022/10/29 09:34:59;;;;;;;;;;;;;;;22.09;63.33;97957.05;604872;234;64547;-72
2022/10/29 09:37:31;;;;;;;;;;;;;;;22.10;64.39;97957.87;604813;234;62962;-73
2022/10/29 09:39:59;;;;;;;;;;;;;;;22.09;64.95;97953.56;604674;234;64644;-72
2022/10/29 09:42:28;;;;;;;;;;;;;;;22.09;64.91;97946.34;604876;234;66648;-72
2022/10/29 09:44:57;;;;;;;;;;;;;;;22.09;62.54;97945.53;604663;234;62756;-72
2022/10/29 09:47:37;;;;;;;;;;;;;;;22.09;63.16;97950.89;604912;234;46621;-73
2022/10/29 09:50:15;;;;;;;;;;;;;;;22.09;63.03;97945.53;604847;234;66288;-72
2022/10/29 09:52:44;;;;;;;;;;;;;;;22.09;63.91;97932.15;604875;234;62758;-73
2022/10/29 09:55:18;;;;;;;;;;;;;;;22.09;64.55;97930.28;604818;234;66719;-72
2022/10/29 09:57:48;;;;;;;;;;;;;;;22.08;64.38;97933.22;604836;234;64841;-72
2022/10/29 10:00:20;;;;;;;;;;;;;;;22.07;63.09;97928.91;604786;234;64953;-72
2022/10/29 10:02:55;;;;;;;;;;;;;;;22.08;64.67;97922.52;604722;234;66565;-72
2022/10/29 10:05:24;;;;;;;;;;;;;;;22.08;64.69;97917.16;604820;234;66635;-72
2022/10/29 10:08:06;;;;;;;;;;;;;;;22.07;63.63;97920.88;604850;234;62657;-72
2022/10/29 10:10:34;;;;;;;;;;;;;;;22.07;64.45;97908.33;604752;234;66778;-72
2022/10/29 10:13:04;;;;;;;;;;;;;;;22.07;64.48;97916.36;604826;234;66880;-72
2022/10/29 10:15:37;;;;;;;;;;;;;;;22.06;63.60;97904.02;604888;234;45608;-72
2022/10/29 10:18:06;;;;;;;;;;;;;;;22.07;64.05;97904.83;604843;234;66516;-72
2022/10/29 10:20:38;;;;;;;;;;;;;;;22.07;62.92;97902.15;604869;234;64355;-73
2022/10/29 10:23:20;;;;;;;;;;;;;;;22.06;63.03;97898.67;604823;234;64895;-72
2022/10/29 10:25:48;;;;;;;;;;;;;;;22.07;62.91;97891.44;604792;234;67045;-72
2022/10/29 10:28:20;;;;;;;;;;;;;;;22.07;63.33;97888.77;604840;234;66867;-72
2022/10/29 10:30:58;;;;;;;;;;;;;;;22.08;63.90;97893.07;604822;234;64849;-71
2022/10/29 10:33:26;;;;;;;;;;;;;;;22.06;64.07;97882.61;598122;234;64522;-72
2022/10/29 10:35:54;;;;;;;;;;;;;;;22.06;62.13;97876.45;604802;234;66834;-72
2022/10/29 10:38:21;;;;;;;;;;;;;;;22.06;64.35;97865.75;604869;234;65006;-72
2022/10/29 10:40:56;;;;;;;;;;;;;;;22.06;62.63;97871.09;604840;234;66566;-72
2022/10/29 10:43:24;;;;;;;;;;;;;;;22.06;64.43;97871.09;604811;234;64754;-72
2022/10/29 10:45:57;;;;;;;;;;;;;;;22.05;63.24;97866.82;604826;234;64927;-72
2022/10/29 10:48:27;;;;;;;;;;;;;;;22.04;65.26;97863.31;604664;234;66959;-69
2022/10/29 10:51:11;;;;;;;;;;;;;;;22.04;63.55;97863.31;604059;234;64762;-72
2022/10/29 10:53:40;;;;;;;;;;;;;;;22.05;64.82;97853.44;585093;241;64910;-71
2022/10/29 10:56:09;;;;;;;;;;;;;;;22.03;63.83;97848.33;598415;234;64596;-72
2022/10/29 10:58:38;;;;;;;;;;;;;;;22.03;63.35;97848.33;604548;234;64645;-72
2022/10/29 11:01:06;;;;;;;;;;;;;;;22.03;63.77;97851.00;604762;234;62622;-72
2022/10/29 11:03:38;;;;;;;;;;;;;;;22.03;64.32;97845.66;604753;234;64263;-72
2022/10/29 11:06:26;;;;;;;;;;;;;;;22.04;65.13;97847.25;604827;234;66389;-72
2022/10/29 11:09:00;;;;;;;;;;;;;;;22.03;63.99;97840.30;585082;241;63681;-72
2022/10/29 11:11:29;;;;;;;;;;;;;;;22.03;63.50;97836.83;584987;242;64598;-72
2022/10/29 11:13:58;;;;;;;;;;;;;;;22.03;63.51;97840.30;592939;234;66850;-72
2022/10/29 11:16:30;;;;;;;;;;;;;;;22.02;63.66;97836.02;604671;234;65055;-72
2022/10/29 11:19:01;;;;;;;;;;;;;;;22.03;62.72;97834.14;604823;234;67327;-72
2022/10/29 11:21:30;;;;;;;;;;;;;;;22.02;63.87;97829.87;604741;234;64390;-72
2022/10/29 11:24:00;;;;;;;;;;;;;;;22.03;64.27;97828.80;604850;234;62702;-72
2022/10/29 11:26:47;;;;;;;;;;;;;;;22.03;64.79;97820.77;604827;234;66773;-72
2022/10/29 11:29:32;;;;;;;;;;;;;;;22.02;63.91;97827.19;604774;234;64749;-72
2022/10/29 11:32:07;;;;;;;;;;;;;;;22.02;65.07;97816.48;604800;234;62822;-72
2022/10/29 11:34:49;;;;;;;;;;;;;;;22.02;65.15;97821.84;604667;234;65723;-72
2022/10/29 11:37:23;;;;;;;;;;;;;;;22.02;65.03;97813.81;603995;234;64610;-73
2022/10/29 11:39:53;;;;;;;;;;;;;;;22.01;63.92;97806.83;604737;234;65134;-72
2022/10/29 11:42:20;;;;;;;;;;;;;;;22.00;65.38;97808.70;604663;234;64816;-72
2022/10/29 11:44:48;;;;;;;;;;;;;;;21.99;64.79;97809.77;604801;234;64359;-72
2022/10/29 11:47:32;;;;;;;;;;;;;;;21.99;64.66;97812.45;604823;234;65098;-72
2022/10/29 11:50:07;;;;;;;;;;;;;;;21.99;64.47;97803.59;604715;234;66728;-72
2022/10/29 11:52:42;;;;;;;;;;;;;;;21.99;63.86;97800.91;605129;234;66679;-72
2022/10/29 11:55:28;;;;;;;;;;;;;;;21.99;64.00;97795.56;605007;234;62761;-73
2022/10/29 11:57:59;;;;;;;;;;;;;;;21.99;63.78;97787.53;605177;232;64524;-72
2022/10/29 12:00:31;;;;;;;;;;;;;;;21.99;64.05;97784.86;605203;234;64672;-72
2022/10/29 12:02:59;;;;;;;;;;;;;;;21.99;63.61;97784.86;605078;234;64867;-72
2022/10/29 12:05:27;;;;;;;;;;;;;;;21.99;64.92;97779.50;604953;234;64297;-72
2022/10/29 12:08:13;;;;;;;;;;;;;;;21.97;64.22;97779.78;604990;234;64494;-72
2022/10/29 12:10:51;;;;;;;;;;;;;;;21.98;64.62;97776.03;605074;234;65051;-72
2022/10/29 12:13:36;;;;;;;;;;;;;;;21.98;64.71;97776.03;605074;234;66939;-73
2022/10/29 12:16:11;;;;;;;;;;;;;;;21.98;65.29;97765.32;605194;234;66852;-73
2022/10/29 12:18:52;;;;;;;;;;;;;;;21.98;65.27;97772.55;605070;234;62918;-73
2022/10/29 12:21:30;;;;;;;;;;;;;;;21.98;65.42;97761.84;605114;234;64274;-72
2022/10/29 12:24:17;;;;;;;;;;;;;;;21.96;65.09;97764.77;604896;234;66291;-74
2022/10/29 12:26:46;;;;;;;;;;;;;;;21.97;64.09;97762.92;605162;234;65071;-72
2022/10/29 12:29:18;;;;;;;;;;;;;;;21.95;65.37;97758.61;604667;234;66799;-73
2022/10/29 12:31:47;;;;;;;;;;;;;;;21.96;64.68;97764.77;605100;234;64790;-74
2022/10/29 12:34:24;;;;;;;;;;;;;;;21.94;64.90;97756.22;605109;234;43529;-74
2022/10/29 12:36:56;;;;;;;;;;;;;;;21.95;64.45;97752.46;605015;234;67750;-73
2022/10/29 12:39:31;;;;;;;;;;;;;;;21.95;63.94;97753.27;605110;234;64308;-73
2022/10/29 12:42:00;;;;;;;;;;;;;;;21.96;64.35;97748.71;605148;234;64955;-71
2022/10/29 12:44:29;;;;;;;;;;;;;;;21.97;64.24;97746.86;604665;234;64621;-73
2022/10/29 12:47:14;;;;;;;;;;;;;;;21.95;64.42;97742.56;604849;234;64413;-74
2022/10/29 12:49:43;;;;;;;;;;;;;;;21.95;65.06;97744.44;605135;234;62847;-73
2022/10/29 12:52:24;;;;;;;;;;;;;;;21.94;66.37;97735.61;604944;234;64334;-71
2022/10/29 12:54:52;;;;;;;;;;;;;;;21.94;65.32;97740.95;604908;234;66601;-73
2022/10/29 12:57:21;;;;;;;;;;;;;;;21.93;63.87;97742.03;605066;234;64836;-73
2022/10/29 12:59:50;;;;;;;;;;;;;;;21.94;65.73;97732.92;605115;234;64819;-71
2022/10/29 13:02:19;;;;;;;;;;;;;;;21.94;64.17;97734.80;605123;234;64492;-72